Time;durP1;ratioP1;P1;durP2;ratioP2;P2;SDS_P1;SDS_P2;PMS_P1;PMS_P2;Temp;Humidity;BMP_temperature;BMP_pressure;BME280_temperature;BME280_humidity;BME280_pressure;Samples;Min_cycle;Max_cycle;Signal;HPM_P1;HPM_P2
2021/10/22 00:03:47;;;;;;;2.30;2.07;;;11.90;99.90;;;;;;10271283;29;20613;-83
2021/10/22 00:08:50;;;;;;;5.20;2.40;;;11.90;99.90;;;;;;10257378;28;20235;-82
2021/10/22 00:13:59;;;;;;;2.60;2.27;;;11.80;99.90;;;;;;10274474;29;20200;-83
2021/10/22 00:19:01;;;;;;;5.00;2.87;;;11.70;99.90;;;;;;10257874;28;20235;-83
2021/10/22 00:24:06;;;;;;;2.63;2.53;;;11.70;99.90;;;;;;10278137;28;20208;-83
2021/10/22 00:29:08;;;;;;;2.17;1.97;;;11.70;99.90;;;;;;10282587;28;20589;-83
2021/10/22 00:34:10;;;;;;;3.03;2.00;;;11.50;99.90;;;;;;10265561;29;20748;-83
2021/10/22 00:39:13;;;;;;;3.60;2.30;;;11.40;99.90;;;;;;10284049;29;20223;-83
2021/10/22 00:44:16;;;;;;;1.77;1.67;;;11.30;99.90;;;;;;10267889;29;20211;-83
2021/10/22 00:49:21;;;;;;;2.20;1.90;;;11.20;99.90;;;;;;10286764;28;20308;-83
2021/10/22 00:54:24;;;;;;;2.20;2.00;;;11.20;99.90;;;;;;10269804;29;20215;-83
2021/10/22 00:59:26;;;;;;;2.10;2.00;;;11.20;99.90;;;;;;10282621;29;20252;-83
2021/10/22 01:04:28;;;;;;;1.87;1.77;;;11.20;99.90;;;;;;10243997;29;20205;-83
2021/10/22 01:09:32;;;;;;;2.40;2.20;;;11.20;99.90;;;;;;10229821;29;20229;-83
2021/10/22 01:14:34;;;;;;;2.00;1.90;;;11.30;99.90;;;;;;10249259;29;20205;-83
2021/10/22 01:19:38;;;;;;;4.80;2.30;;;11.30;99.90;;;;;;10248007;29;20233;-83
2021/10/22 01:24:42;;;;;;;6.57;2.70;;;11.40;99.90;;;;;;10221512;29;20205;-83
2021/10/22 01:29:44;;;;;;;4.00;2.30;;;11.40;99.90;;;;;;10245417;29;20241;-82
2021/10/22 01:34:46;;;;;;;3.30;2.03;;;11.40;99.90;;;;;;10258674;29;20255;-82
2021/10/22 01:39:49;;;;;;;6.90;2.20;;;11.40;99.90;;;;;;10264810;29;20231;-83
2021/10/22 01:44:51;;;;;;;4.47;2.40;;;11.50;99.90;;;;;;10263943;29;20736;-83
2021/10/22 01:49:54;;;;;;;4.60;2.00;;;11.50;99.90;;;;;;10266608;29;20320;-83
2021/10/22 01:54:57;;;;;;;5.80;2.57;;;11.50;99.90;;;;;;10244335;29;20205;-82
2021/10/22 01:59:59;;;;;;;4.50;2.50;;;11.50;99.90;;;;;;10244775;29;20278;-83
2021/10/22 02:05:02;;;;;;;2.50;1.97;;;11.50;99.90;;;;;;10244202;29;20227;-83
2021/10/22 02:10:08;;;;;;;3.83;2.10;;;11.50;99.90;;;;;;10259443;29;20222;-83
2021/10/22 02:15:10;;;;;;;4.00;2.57;;;11.50;99.90;;;;;;10260643;29;20633;-83
2021/10/22 02:20:13;;;;;;;3.00;2.30;;;11.40;99.90;;;;;;10248134;29;20239;-83
2021/10/22 02:25:16;;;;;;;4.63;2.10;;;11.40;99.90;;;;;;10267038;29;20204;-83
2021/10/22 02:30:20;;;;;;;3.30;2.30;;;11.30;99.90;;;;;;10269182;29;20681;-83
2021/10/22 02:35:22;;;;;;;4.50;2.20;;;11.20;99.90;;;;;;10251728;29;20220;-83
2021/10/22 02:40:26;;;;;;;4.27;2.57;;;11.10;99.90;;;;;;10269199;29;20212;-82
2021/10/22 02:45:28;;;;;;;5.33;2.70;;;10.90;99.90;;;;;;10269910;29;20224;-82
2021/10/22 02:50:31;;;;;;;4.30;2.67;;;10.80;99.90;;;;;;10270862;29;20251;-82
2021/10/22 02:55:35;;;;;;;5.17;2.50;;;10.60;99.90;;;;;;10253791;29;20209;-82
2021/10/22 03:00:37;;;;;;;3.90;2.30;;;10.50;99.90;;;;;;10269717;29;20248;-82
2021/10/22 03:05:41;;;;;;;8.30;3.10;;;10.40;99.90;;;;;;10251276;28;20702;-82
2021/10/22 03:10:45;;;;;;;9.30;2.97;;;10.40;99.90;;;;;;10234779;29;20213;-83
2021/10/22 03:15:47;;;;;;;3.27;2.40;;;10.30;99.90;;;;;;10216238;29;20194;-82
2021/10/22 03:20:49;;;;;;;6.53;2.90;;;10.30;99.90;;;;;;10217132;29;20229;-83
2021/10/22 03:25:53;;;;;;;4.80;2.47;;;10.20;99.90;;;;;;10217492;29;20284;-82
2021/10/22 03:30:55;;;;;;;3.17;2.53;;;10.10;99.90;;;;;;10201403;29;20272;-82
2021/10/22 03:35:57;;;;;;;6.43;2.90;;;10.10;99.90;;;;;;10218157;29;20665;-82
2021/10/22 03:41:02;;;;;;;5.93;2.73;;;10.10;99.90;;;;;;10218432;29;20271;-82
2021/10/22 03:46:05;;;;;;;4.50;3.07;;;10.00;99.90;;;;;;10218394;29;20585;-83
2021/10/22 03:51:07;;;;;;;4.37;3.00;;;9.90;99.90;;;;;;10217826;29;20304;-82
2021/10/22 03:56:11;;;;;;;4.17;2.57;;;9.90;99.90;;;;;;10218652;29;20217;-82
2021/10/22 04:01:13;;;;;;;6.67;3.20;;;9.80;99.90;;;;;;10202063;29;20233;-82
2021/10/22 04:06:19;;;;;;;5.10;3.00;;;9.80;99.90;;;;;;10230512;28;20221;-82
2021/10/22 04:11:22;;;;;;;5.87;3.30;;;9.80;99.90;;;;;;10265350;29;20223;-82
2021/10/22 04:16:24;;;;;;;6.30;2.70;;;9.70;99.90;;;;;;10264739;29;20208;-82
2021/10/22 04:21:27;;;;;;;6.27;3.57;;;9.60;99.90;;;;;;10267182;29;20295;-82
2021/10/22 04:26:30;;;;;;;5.27;2.60;;;9.60;99.90;;;;;;10274895;29;20197;-82
2021/10/22 04:31:32;;;;;;;6.37;3.40;;;9.50;99.90;;;;;;10269129;29;20370;-82
2021/10/22 04:36:36;;;;;;;9.50;5.00;;;9.50;99.90;;;;;;10240652;29;20293;-82
2021/10/22 04:41:39;;;;;;;10.17;5.53;;;9.40;99.90;;;;;;10257434;29;20232;-83
2021/10/22 04:46:44;;;;;;;9.70;5.33;;;9.40;99.90;;;;;;10257805;29;20204;-82
2021/10/22 04:51:46;;;;;;;9.83;4.87;;;9.40;99.90;;;;;;10256366;29;20223;-82
2021/10/22 04:56:50;;;;;;;7.60;4.70;;;9.40;99.90;;;;;;10244647;29;20201;-82
2021/10/22 05:01:52;;;;;;;6.87;4.03;;;9.30;99.90;;;;;;10260962;29;20216;-82
2021/10/22 05:06:54;;;;;;;7.00;4.10;;;9.30;99.90;;;;;;10230300;29;20284;-82
2021/10/22 05:11:59;;;;;;;12.17;4.00;;;9.20;99.90;;;;;;10223786;29;20564;-82
2021/10/22 05:17:02;;;;;;;7.10;4.10;;;9.20;99.90;;;;;;10224274;29;20705;-82
2021/10/22 05:22:04;;;;;;;5.90;3.93;;;9.20;99.90;;;;;;10209422;29;20261;-82
2021/10/22 05:27:08;;;;;;;5.83;3.57;;;9.20;99.90;;;;;;10206020;29;20228;-82
2021/10/22 05:32:10;;;;;;;6.10;4.13;;;9.20;99.90;;;;;;10204793;29;20292;-82
2021/10/22 05:37:12;;;;;;;7.23;3.53;;;9.10;99.90;;;;;;10236866;29;20688;-82
2021/10/22 05:42:15;;;;;;;5.97;3.47;;;9.10;99.90;;;;;;10258619;29;20225;-82
2021/10/22 05:47:17;;;;;;;9.00;3.73;;;9.10;99.90;;;;;;10258283;29;20288;-82
2021/10/22 05:52:20;;;;;;;3.83;3.17;;;9.00;99.90;;;;;;10260254;28;20207;-82
2021/10/22 05:57:23;;;;;;;7.47;3.80;;;9.00;99.90;;;;;;10243545;29;20248;-82
2021/10/22 06:02:25;;;;;;;8.50;4.40;;;9.00;99.90;;;;;;10257814;29;20232;-82
2021/10/22 06:07:27;;;;;;;3.67;3.37;;;9.10;99.90;;;;;;10243010;29;20401;-82
2021/10/22 06:12:31;;;;;;;6.43;3.27;;;9.00;99.90;;;;;;10262009;28;20196;-82
2021/10/22 06:17:33;;;;;;;8.27;3.47;;;9.10;99.90;;;;;;10259307;29;20220;-82
2021/10/22 06:22:40;;;;;;;11.90;4.67;;;9.10;99.90;;;;;;10259600;29;20231;-82
2021/10/22 06:27:43;;;;;;;6.70;4.03;;;9.10;99.90;;;;;;10259081;28;20209;-82
2021/10/22 06:32:45;;;;;;;7.53;3.17;;;9.20;99.90;;;;;;10243416;29;20361;-82
2021/10/22 06:37:48;;;;;;;5.40;3.90;;;9.20;99.90;;;;;;10219034;29;20275;-82
2021/10/22 06:42:52;;;;;;;7.47;4.40;;;9.20;99.90;;;;;;10219798;29;20295;-82
2021/10/22 06:47:54;;;;;;;8.30;3.83;;;9.20;99.90;;;;;;10220115;29;20237;-82
2021/10/22 06:52:56;;;;;;;9.67;4.17;;;9.30;99.90;;;;;;10220860;29;20197;-82
2021/10/22 06:57:59;;;;;;;9.53;4.07;;;9.30;99.90;;;;;;10205584;29;20316;-82
2021/10/22 07:03:02;;;;;;;3.93;3.40;;;9.30;99.90;;;;;;10206084;29;20255;-82
2021/10/22 07:08:06;;;;;;;8.60;3.73;;;9.30;99.90;;;;;;10263049;28;20248;-82
2021/10/22 07:13:09;;;;;;;8.30;4.10;;;9.40;99.90;;;;;;10262515;29;20189;-82
2021/10/22 07:18:12;;;;;;;9.50;3.70;;;9.40;99.90;;;;;;10263894;29;20583;-82
2021/10/22 07:23:14;;;;;;;6.20;3.87;;;9.40;99.90;;;;;;10276236;29;20228;-82
2021/10/22 07:28:18;;;;;;;7.53;3.80;;;9.50;99.90;;;;;;10262109;29;20811;-82
2021/10/22 07:33:21;;;;;;;9.47;4.20;;;9.60;99.90;;;;;;10248396;29;20734;-83
2021/10/22 07:38:24;;;;;;;6.80;2.90;;;9.60;99.90;;;;;;10214276;29;20249;-83
2021/10/22 07:43:32;;;;;;;7.40;3.20;;;9.70;99.90;;;;;;10204874;29;20247;-83
2021/10/22 07:48:36;;;;;;;8.00;3.10;;;9.70;99.90;;;;;;10205200;29;20779;-82
2021/10/22 07:53:38;;;;;;;11.97;4.67;;;9.70;99.90;;;;;;10205781;29;20193;-82
2021/10/22 07:58:42;;;;;;;14.27;5.00;;;9.70;99.90;;;;;;10189138;29;20221;-82
2021/10/22 08:03:45;;;;;;;6.63;3.73;;;9.80;99.90;;;;;;10188114;29;20702;-82
2021/10/22 08:08:48;;;;;;;15.43;4.10;;;9.80;99.90;;;;;;10204844;29;20233;-82
2021/10/22 08:13:51;;;;;;;6.00;3.77;;;9.90;99.90;;;;;;10189009;29;20204;-82
2021/10/22 08:18:53;;;;;;;9.57;4.00;;;10.00;99.90;;;;;;10205103;29;20619;-82
2021/10/22 08:23:56;;;;;;;11.40;4.37;;;10.10;99.90;;;;;;10189064;29;20271;-82
2021/10/22 08:28:59;;;;;;;8.37;3.87;;;10.20;99.90;;;;;;10189694;29;20716;-82
2021/10/22 08:34:01;;;;;;;11.53;4.10;;;10.30;99.90;;;;;;10205113;29;20581;-82
2021/10/22 08:39:03;;;;;;;4.83;2.53;;;10.40;99.90;;;;;;10191042;29;20728;-82
2021/10/22 08:44:09;;;;;;;6.33;3.90;;;10.50;99.90;;;;;;10190426;29;20611;-82
2021/10/22 08:49:12;;;;;;;4.30;2.80;;;10.60;99.90;;;;;;10196390;29;20256;-82
2021/10/22 08:54:14;;;;;;;8.00;4.07;;;10.70;99.90;;;;;;10219697;29;20201;-82
2021/10/22 08:59:17;;;;;;;6.37;3.40;;;10.70;99.90;;;;;;10243292;29;20685;-83
2021/10/22 09:04:32;;;;;;;6.23;3.57;;;10.80;99.90;;;;;;10232229;29;20236;-83
2021/10/22 09:09:34;;;;;;;5.20;3.53;;;10.90;99.90;;;;;;10243504;29;20224;-83
2021/10/22 09:14:40;;;;;;;4.73;2.90;;;10.90;99.90;;;;;;10258598;29;20367;-83
2021/10/22 09:19:43;;;;;;;7.60;3.50;;;11.00;99.90;;;;;;10241999;29;20269;-83
2021/10/22 09:24:50;;;;;;;10.83;3.77;;;11.00;99.90;;;;;;10259271;29;20229;-83
2021/10/22 09:29:53;;;;;;;13.40;3.33;;;11.00;99.90;;;;;;10243570;29;20311;-83
2021/10/22 09:34:55;;;;;;;13.13;4.10;;;11.10;99.90;;;;;;10243010;29;20209;-83
2021/10/22 09:40:01;;;;;;;7.70;2.20;;;11.20;99.90;;;;;;10219782;29;20231;-83
2021/10/22 09:45:05;;;;;;;6.50;2.93;;;11.20;99.90;;;;;;10238999;29;20224;-82
2021/10/22 09:50:09;;;;;;;7.77;3.70;;;11.30;99.90;;;;;;10254138;29;20224;-83
2021/10/22 09:55:13;;;;;;;6.70;3.10;;;11.30;99.90;;;;;;10259649;29;20244;-83
2021/10/22 10:00:22;;;;;;;4.87;2.50;;;11.40;99.90;;;;;;10264577;29;20588;-82
2021/10/22 10:05:25;;;;;;;7.30;2.93;;;11.40;99.90;;;;;;10220479;29;20232;-83
2021/10/22 10:10:28;;;;;;;5.40;2.20;;;11.40;99.90;;;;;;10204434;29;20232;-83
2021/10/22 10:15:33;;;;;;;4.00;2.17;;;11.40;99.90;;;;;;10222226;29;20204;-83
2021/10/22 10:20:35;;;;;;;4.97;3.00;;;11.40;99.90;;;;;;10223971;29;20653;-82
2021/10/22 10:25:37;;;;;;;4.93;2.70;;;11.40;99.90;;;;;;10202339;29;20229;-82
2021/10/22 10:30:41;;;;;;;3.00;2.70;;;11.40;99.90;;;;;;10200245;29;20225;-83
2021/10/22 10:35:44;;;;;;;8.00;2.60;;;11.40;99.90;;;;;;10237566;29;20201;-83
2021/10/22 10:40:46;;;;;;;3.67;2.40;;;11.40;99.90;;;;;;10254318;28;20231;-83
2021/10/22 10:45:49;;;;;;;6.63;2.90;;;11.50;99.90;;;;;;10213971;29;20228;-83
2021/10/22 10:50:54;;;;;;;8.03;3.40;;;11.50;99.90;;;;;;10213685;29;20254;-82
2021/10/22 10:55:57;;;;;;;9.00;2.50;;;11.60;99.90;;;;;;10214891;29;20550;-81
2021/10/22 11:01:07;;;;;;;5.70;2.70;;;11.60;99.90;;;;;;10195099;29;20221;-82
2021/10/22 11:06:10;;;;;;;5.07;2.77;;;11.60;99.90;;;;;;10238170;29;20283;-82
2021/10/22 11:11:41;;;;;;;4.20;2.47;;;11.70;99.90;;;;;;10251394;29;20607;-82
2021/10/22 11:16:50;;;;;;;6.87;2.97;;;11.70;99.90;;;;;;10251704;28;20196;-81
2021/10/22 11:21:55;;;;;;;4.53;2.60;;;11.80;99.90;;;;;;10250624;29;20228;-82
2021/10/22 11:27:00;;;;;;;5.33;3.00;;;11.80;99.90;;;;;;10250717;29;20297;-82
2021/10/22 11:32:09;;;;;;;2.77;2.50;;;11.90;99.90;;;;;;10250222;29;20204;-82
2021/10/22 11:43:05;;;;;;;5.67;3.17;;;12.00;99.90;;;;;;10228118;29;20258;-82
2021/10/22 11:48:13;;;;;;;6.93;2.20;;;12.00;99.90;;;;;;10230305;29;20224;-82
2021/10/22 11:53:24;;;;;;;2.70;2.50;;;12.00;99.90;;;;;;10230093;29;20200;-82
2021/10/22 11:58:34;;;;;;;4.60;2.73;;;12.10;99.90;;;;;;10230690;29;20232;-81
2021/10/22 12:03:39;;;;;;;3.60;2.57;;;12.10;99.90;;;;;;10219324;29;20283;-82
2021/10/22 12:08:42;;;;;;;2.67;1.93;;;12.10;99.90;;;;;;10236406;29;20237;-82
2021/10/22 12:13:45;;;;;;;5.63;3.00;;;12.20;99.90;;;;;;10245193;28;20229;-82
2021/10/22 12:18:52;;;;;;;5.87;3.17;;;12.20;97.80;;;;;;10231543;29;20229;-82
2021/10/22 12:24:28;;;;;;;3.73;2.07;;;12.30;99.90;;;;;;10230406;29;20227;-82
2021/10/22 12:30:02;;;;;;;2.27;2.07;;;12.30;97.40;;;;;;10228185;29;20268;-83
2021/10/22 12:35:15;;;;;;;3.30;2.20;;;12.30;99.90;;;;;;10239732;29;20197;-83
2021/10/22 12:40:25;;;;;;;2.23;2.03;;;12.20;99.90;;;;;;10218593;29;20224;-83
2021/10/22 12:45:27;;;;;;;4.23;2.40;;;12.30;95.20;;;;;;10237118;29;20228;-83
2021/10/22 12:50:35;;;;;;;5.30;2.47;;;12.30;96.70;;;;;;10247718;29;20231;-83
2021/10/22 12:55:37;;;;;;;3.00;1.80;;;12.30;95.60;;;;;;10200232;29;20201;-83
2021/10/22 13:00:40;;;;;;;3.40;2.30;;;12.30;99.90;;;;;;10240128;29;20276;-83
2021/10/22 13:05:44;;;;;;;2.90;1.87;;;12.30;99.90;;;;;;10224011;29;20240;-83
2021/10/22 13:10:58;;;;;;;3.37;2.57;;;12.30;99.90;;;;;;10217407;29;20221;-83
2021/10/22 13:21:21;;;;;;;5.17;2.33;;;12.50;97.90;;;;;;10200241;29;20229;-83
2021/10/22 13:26:24;;;;;;;4.17;2.60;;;12.40;99.90;;;;;;10216617;29;20221;-83
2021/10/22 13:31:28;;;;;;;5.93;2.50;;;12.50;96.70;;;;;;10214173;29;20706;-83
2021/10/22 13:36:32;;;;;;;6.30;2.80;;;12.50;99.90;;;;;;10226310;28;20678;-83
2021/10/22 13:41:34;;;;;;;3.83;2.80;;;12.50;99.80;;;;;;10238760;29;20315;-83
2021/10/22 13:46:39;;;;;;;7.57;3.07;;;12.50;99.20;;;;;;10254418;29;20713;-83
2021/10/22 13:51:42;;;;;;;4.77;3.10;;;12.60;99.90;;;;;;10238514;29;20315;-83
2021/10/22 13:56:44;;;;;;;4.33;2.40;;;12.60;99.90;;;;;;10238828;29;20200;-83
2021/10/22 14:01:46;;;;;;;3.50;2.77;;;12.60;97.10;;;;;;10256132;28;20214;-83
2021/10/22 14:06:50;;;;;;;2.93;2.27;;;12.60;97.90;;;;;;10241861;29;20201;-83
2021/10/22 14:11:54;;;;;;;2.93;2.63;;;12.60;97.50;;;;;;10219140;29;20549;-83
2021/10/22 14:17:05;;;;;;;6.00;2.57;;;12.50;98.60;;;;;;10200147;29;20216;-83
2021/10/22 14:32:49;;;;;;;2.83;2.10;;;12.50;99.90;;;;;;10200486;29;20201;-83
2021/10/22 14:37:52;;;;;;;4.53;2.63;;;12.50;94.30;;;;;;10216582;29;20240;-82
2021/10/22 14:42:55;;;;;;;6.40;2.80;;;12.60;98.30;;;;;;10217692;29;20240;-83
2021/10/22 14:47:59;;;;;;;2.67;2.47;;;12.50;99.90;;;;;;10216987;29;20232;-82
2021/10/22 14:53:15;;;;;;;3.30;2.30;;;12.50;99.00;;;;;;10218486;29;20197;-82
2021/10/22 14:58:20;;;;;;;4.17;2.30;;;12.60;99.90;;;;;;10218767;29;20617;-82
2021/10/22 15:03:22;;;;;;;3.90;2.43;;;12.60;99.90;;;;;;10219433;29;20221;-82
2021/10/22 15:08:25;;;;;;;3.90;2.10;;;12.60;99.60;;;;;;10185558;29;20233;-83
2021/10/22 15:13:27;;;;;;;4.27;2.30;;;12.60;99.80;;;;;;10203291;29;20322;-83
2021/10/22 15:18:30;;;;;;;3.43;2.37;;;12.60;97.10;;;;;;10220999;29;20247;-83
2021/10/22 15:23:33;;;;;;;3.37;2.20;;;12.60;99.90;;;;;;10219788;29;20257;-82
2021/10/22 15:28:36;;;;;;;3.40;2.60;;;12.60;99.90;;;;;;10184705;29;20552;-82
2021/10/22 15:33:38;;;;;;;4.53;2.90;;;12.60;99.90;;;;;;10179856;29;20206;-81
2021/10/22 15:38:41;;;;;;;5.60;2.50;;;12.70;99.90;;;;;;10168321;29;20245;-81
2021/10/22 15:43:43;;;;;;;4.97;3.30;;;12.60;98.50;;;;;;10156264;29;20218;-82
2021/10/22 15:48:46;;;;;;;4.70;3.60;;;12.50;99.90;;;;;;10173918;29;20224;-82
2021/10/22 15:53:51;;;;;;;3.87;3.07;;;12.50;99.90;;;;;;10212973;29;20692;-82
2021/10/22 15:58:55;;;;;;;4.47;2.60;;;12.40;99.90;;;;;;10199098;29;20701;-82
2021/10/22 16:03:58;;;;;;;3.30;3.00;;;12.40;99.90;;;;;;10221571;29;20225;-82
2021/10/22 16:09:04;;;;;;;4.53;2.80;;;12.30;99.90;;;;;;10205320;29;20240;-82
2021/10/22 16:19:26;;;;;;;4.47;3.20;;;12.20;99.90;;;;;;10216399;28;20297;-83
2021/10/22 16:24:30;;;;;;;4.70;3.10;;;12.20;99.90;;;;;;10221862;29;20701;-82
2021/10/22 16:29:32;;;;;;;3.30;2.80;;;12.20;99.90;;;;;;10203688;29;20284;-83
2021/10/22 16:39:55;;;;;;;4.73;2.93;;;12.10;99.90;;;;;;10258175;29;20231;-82
2021/10/22 16:44:59;;;;;;;5.83;3.37;;;12.10;99.90;;;;;;10241183;29;20232;-83
2021/10/22 21:03:56;;;;;;;4.60;2.60;;;11.70;99.90;;;;;;10234566;29;20312;-84
2021/10/22 21:08:58;;;;;;;6.93;3.10;;;11.60;98.50;;;;;;10184100;29;20627;-84
2021/10/22 21:14:01;;;;;;;3.27;2.87;;;11.60;99.90;;;;;;10180779;29;20200;-84
2021/10/22 21:19:05;;;;;;;4.50;3.10;;;11.60;99.90;;;;;;10198376;29;20230;-84
2021/10/22 21:24:08;;;;;;;4.60;3.37;;;11.70;99.90;;;;;;10215327;29;20647;-85
2021/10/22 21:29:10;;;;;;;3.17;2.87;;;11.70;99.90;;;;;;10205183;29;20254;-84
2021/10/22 21:34:15;;;;;;;5.97;3.20;;;11.70;99.90;;;;;;10172264;29;20659;-84
2021/10/22 21:39:23;;;;;;;5.50;2.93;;;11.70;98.50;;;;;;10170329;29;20264;-85
2021/10/22 21:44:25;;;;;;;2.90;2.70;;;11.70;99.90;;;;;;10161267;29;20210;-85
2021/10/22 21:49:29;;;;;;;3.37;2.90;;;11.70;99.90;;;;;;10175056;29;20225;-85
2021/10/22 21:54:31;;;;;;;3.80;2.97;;;11.70;99.90;;;;;;10175728;29;20218;-85
2021/10/22 21:59:34;;;;;;;4.10;3.00;;;11.70;99.70;;;;;;10176123;29;20268;-84
2021/10/22 22:04:37;;;;;;;4.60;2.93;;;11.70;99.90;;;;;;10159902;29;20233;-85
2021/10/22 22:09:41;;;;;;;6.17;3.17;;;11.70;99.90;;;;;;10181813;29;20255;-85
2021/10/22 22:14:43;;;;;;;3.30;3.00;;;11.70;99.90;;;;;;10214958;29;20693;-84
2021/10/22 22:19:47;;;;;;;4.53;2.80;;;11.80;99.90;;;;;;10197795;29;20660;-84
2021/10/22 22:24:49;;;;;;;5.03;3.30;;;11.80;99.90;;;;;;10213335;29;20608;-84
2021/10/22 22:29:52;;;;;;;4.80;3.43;;;11.80;99.90;;;;;;10213630;29;20236;-85
2021/10/22 22:34:55;;;;;;;2.77;2.50;;;11.90;99.90;;;;;;10213357;29;20249;-85
2021/10/22 22:40:00;;;;;;;5.53;3.00;;;11.90;99.90;;;;;;10174539;29;20236;-85
2021/10/22 22:45:07;;;;;;;5.27;2.87;;;11.90;99.90;;;;;;10173685;29;20702;-85
2021/10/22 22:50:12;;;;;;;4.67;2.93;;;11.90;99.90;;;;;;10249697;23;20244;-82
2021/10/22 22:55:16;;;;;;;3.33;3.03;;;11.90;99.90;;;;;;10280455;29;20207;-82
2021/10/22 23:00:18;;;;;;;3.37;2.73;;;11.90;99.90;;;;;;10248109;29;20221;-82
2021/10/22 23:05:21;;;;;;;3.33;3.00;;;11.80;99.90;;;;;;10223835;29;20292;-82
2021/10/22 23:10:24;;;;;;;4.20;3.07;;;11.80;99.90;;;;;;10194576;29;20280;-82
2021/10/22 23:15:26;;;;;;;5.60;3.20;;;11.80;99.90;;;;;;10186723;29;20272;-82
2021/10/22 23:20:30;;;;;;;3.90;2.77;;;11.80;99.90;;;;;;10240712;29;20290;-82
2021/10/22 23:25:32;;;;;;;3.40;2.90;;;11.80;99.90;;;;;;10245710;29;20217;-82
2021/10/22 23:30:34;;;;;;;5.00;3.17;;;11.80;99.90;;;;;;10246987;29;20217;-82
2021/10/22 23:35:37;;;;;;;3.93;2.50;;;11.70;99.90;;;;;;10240137;29;20229;-82
2021/10/22 23:40:40;;;;;;;3.10;2.80;;;11.70;99.90;;;;;;10224339;29;20713;-82
2021/10/22 23:45:42;;;;;;;6.37;3.40;;;11.70;99.90;;;;;;10225162;29;20236;-82
2021/10/22 23:50:45;;;;;;;4.17;3.10;;;11.70;99.90;;;;;;10231457;29;20249;-82
2021/10/22 23:55:49;;;;;;;5.40;2.57;;;11.70;99.90;;;;;;10210607;29;20194;-82
